createdAt,value
2023-03-16T00:02:13.069Z,1.15
2023-03-16T00:07:16.026Z,0.68
2023-03-16T00:12:19.617Z,1.45
2023-03-16T00:17:22.081Z,1.30
2023-03-16T00:22:29.214Z,0.88
2023-03-16T00:27:31.359Z,0.90
2023-03-16T00:32:35.663Z,1.13
2023-03-16T00:37:39.773Z,0.90
2023-03-16T00:42:43.594Z,0.95
2023-03-16T00:47:45.773Z,0.70
2023-03-16T00:52:50.155Z,0.82
2023-03-16T00:57:53.294Z,0.68
2023-03-16T01:02:55.623Z,0.88
2023-03-16T01:07:57.835Z,1.02
2023-03-16T01:12:59.997Z,0.73
2023-03-16T01:18:02.643Z,1.10
2023-03-16T01:23:05.013Z,0.80
2023-03-16T01:28:07.205Z,0.60
2023-03-16T01:33:09.780Z,0.88
2023-03-16T01:38:12.232Z,1.58
2023-03-16T01:43:15.015Z,0.95
2023-03-16T01:48:23.647Z,0.80
2023-03-16T01:53:27.305Z,0.80
2023-03-16T01:58:33.214Z,0.60
2023-03-16T02:03:35.448Z,1.20
2023-03-16T02:08:50.042Z,0.80
2023-03-16T02:13:53.237Z,1.17
2023-03-16T02:18:56.419Z,1.00
2023-03-16T02:23:59.982Z,1.05
2023-03-16T02:29:41.302Z,1.38
2023-03-16T02:34:48.908Z,0.75
2023-03-16T02:39:51.730Z,1.00
2023-03-16T02:44:59.620Z,0.70
2023-03-16T02:50:12.696Z,0.60
2023-03-16T02:55:16.425Z,1.23
2023-03-16T03:00:22.368Z,0.93
2023-03-16T03:05:26.816Z,1.63
2023-03-16T03:10:31.307Z,1.20
2023-03-16T03:15:36.557Z,0.90
2023-03-16T03:20:46.322Z,0.63
2023-03-16T03:25:53.082Z,1.58
2023-03-16T03:30:58.640Z,0.77
2023-03-16T03:36:02.759Z,0.82
2023-03-16T03:41:11.574Z,1.45
2023-03-16T03:46:15.398Z,0.82
2023-03-16T03:51:19.636Z,1.02
2023-03-16T03:56:35.719Z,0.85
2023-03-16T04:01:40.127Z,1.35
2023-03-16T04:06:43.393Z,1.08
2023-03-16T04:11:46.778Z,1.58
2023-03-16T04:16:51.430Z,0.85
2023-03-16T04:21:56.525Z,1.00
2023-03-16T04:27:08.364Z,1.10
2023-03-16T04:32:11.533Z,1.23
2023-03-16T04:37:16.403Z,0.73
2023-03-16T04:42:19.239Z,0.85
2023-03-16T04:47:23.659Z,1.10
2023-03-16T04:52:29.020Z,1.05
2023-03-16T04:57:32.441Z,1.13
2023-03-16T05:02:36.022Z,1.95
2023-03-16T05:07:41.600Z,1.10
2023-03-16T05:12:48.305Z,0.90
2023-03-16T05:17:57.697Z,1.33
2023-03-16T05:23:05.069Z,0.80
2023-03-16T05:28:22.501Z,1.65
2023-03-16T05:33:33.711Z,1.10
2023-03-16T05:43:49.095Z,0.77
2023-03-16T05:48:54.190Z,1.58
2023-03-16T05:53:59.016Z,0.90
2023-03-16T05:59:21.840Z,0.98
2023-03-16T06:04:29.037Z,1.42
2023-03-16T06:09:35.078Z,1.20
2023-03-16T06:14:45.380Z,3.13
2023-03-16T06:19:52.514Z,8.10
2023-03-16T06:24:59.525Z,4.47
2023-03-16T06:30:20.864Z,6.03
2023-03-16T06:35:30.809Z,3.80
2023-03-16T06:40:47.938Z,1.70
2023-03-16T06:45:52.627Z,2.97
2023-03-16T06:51:04.336Z,1.73
2023-03-16T06:56:13.181Z,1.45
2023-03-16T07:01:21.312Z,1.60
2023-03-16T07:06:32.858Z,1.95
2023-03-16T07:11:36.694Z,1.75
2023-03-16T07:16:39.343Z,1.52
2023-03-16T07:21:45.975Z,1.50
2023-03-16T07:26:55.316Z,1.38
2023-03-16T07:37:52.754Z,1.70
2023-03-16T07:42:57.676Z,1.67
2023-03-16T07:48:15.318Z,1.33
2023-03-16T07:53:29.230Z,1.52
2023-03-16T07:58:52.027Z,1.27
2023-03-16T08:04:02.451Z,1.10
2023-03-16T08:09:11.797Z,0.88
2023-03-16T08:14:19.966Z,1.38
2023-03-16T08:20:14.230Z,1.90
2023-03-16T08:25:25.693Z,0.95
2023-03-16T08:30:52.766Z,1.10
2023-03-16T08:36:14.389Z,0.98
2023-03-16T08:41:46.842Z,1.10
2023-03-16T08:47:18.534Z,0.90
2023-03-16T08:52:23.800Z,1.00
2023-03-16T08:57:30.829Z,1.10
2023-03-16T09:02:34.063Z,0.63
2023-03-16T09:07:38.998Z,1.73
2023-03-16T09:12:48.882Z,0.88
2023-03-16T09:17:55.186Z,1.65
2023-03-16T09:22:58.917Z,0.93
2023-03-16T09:28:01.936Z,1.00
2023-03-16T09:33:05.449Z,1.92
2023-03-16T09:38:08.092Z,1.55
2023-03-16T09:43:17.044Z,2.13
2023-03-16T09:48:21.450Z,1.10
2023-03-16T09:53:39.483Z,2.28
2023-03-16T09:58:44.324Z,1.52
2023-03-16T10:09:14.190Z,1.25
2023-03-16T10:14:41.039Z,1.20
2023-03-16T10:19:55.903Z,1.92
2023-03-16T10:25:30.816Z,1.48
2023-03-16T10:30:38.811Z,4.57
2023-03-16T10:36:10.345Z,1.35
2023-03-16T10:41:18.435Z,2.30
2023-03-16T10:46:25.972Z,1.80
2023-03-16T10:51:40.364Z,1.42
2023-03-16T10:56:44.277Z,2.55
2023-03-16T11:01:50.408Z,2.85
2023-03-16T11:06:57.082Z,2.25
2023-03-16T11:12:00.289Z,1.55
2023-03-16T11:17:18.387Z,2.03
2023-03-16T11:22:25.570Z,1.95
2023-03-16T11:27:46.654Z,1.50
2023-03-16T11:32:54.058Z,1.55
2023-03-16T11:38:11.835Z,2.67
2023-03-16T11:43:38.104Z,1.90
2023-03-16T11:49:00.557Z,2.13
2023-03-16T11:54:21.259Z,2.55
2023-03-16T12:00:01.047Z,1.75
2023-03-16T12:05:30.620Z,1.75
2023-03-16T12:10:49.730Z,2.17
2023-03-16T12:15:59.808Z,1.70
2023-03-16T12:21:14.136Z,3.33
2023-03-16T12:26:18.003Z,1.85
2023-03-16T12:31:54.207Z,1.65
2023-03-16T12:37:29.263Z,1.45
2023-03-16T12:42:56.366Z,1.38
2023-03-16T12:48:25.169Z,2.33
2023-03-16T12:53:49.223Z,1.90
2023-03-16T12:58:55.828Z,1.40
2023-03-16T13:04:19.950Z,1.80
2023-03-16T13:09:28.241Z,1.35
2023-03-16T13:14:43.153Z,1.30
2023-03-16T13:20:04.104Z,1.15
2023-03-16T13:25:28.086Z,2.38
2023-03-16T13:30:34.888Z,1.02
2023-03-16T13:35:41.066Z,1.25
2023-03-16T13:40:50.039Z,1.00
2023-03-16T13:45:52.703Z,0.70
2023-03-16T13:50:59.498Z,0.85
2023-03-16T13:56:02.663Z,0.77
2023-03-16T14:01:20.652Z,1.15
2023-03-16T14:06:28.855Z,1.60
2023-03-16T14:11:32.544Z,1.60
2023-03-16T14:16:35.811Z,1.00
2023-03-16T14:21:38.189Z,1.90
2023-03-16T14:26:42.820Z,2.10
2023-03-16T14:31:46.207Z,0.90
2023-03-16T14:36:49.780Z,1.10
2023-03-16T14:41:52.876Z,1.35
2023-03-16T14:46:59.466Z,1.20
2023-03-16T14:52:18.096Z,1.02
2023-03-16T14:57:21.689Z,1.77
2023-03-16T15:02:33.160Z,1.05
2023-03-16T15:07:41.390Z,1.42
2023-03-16T15:12:54.264Z,1.48
2023-03-16T15:18:00.642Z,1.17
2023-03-16T15:23:05.006Z,1.75
2023-03-16T15:28:14.760Z,1.30
2023-03-16T15:33:17.907Z,0.63
2023-03-16T15:38:26.963Z,1.75
2023-03-16T15:43:32.163Z,0.98
2023-03-16T15:48:36.785Z,1.85
2023-03-16T15:53:44.274Z,0.70
2023-03-16T15:58:47.624Z,0.98
2023-03-16T16:03:51.667Z,0.95
2023-03-16T16:20:25.873Z,1.77
2023-03-16T16:26:23.018Z,0.88
2023-03-16T16:31:34.442Z,0.90
2023-03-16T16:36:40.636Z,0.70
2023-03-16T16:41:51.726Z,0.70
2023-03-16T16:46:59.325Z,1.17
2023-03-16T16:57:21.365Z,1.20
2023-03-16T17:02:33.136Z,1.70
2023-03-16T17:07:39.997Z,2.72
2023-03-16T17:12:42.614Z,2.88
2023-03-16T17:17:45.971Z,2.85
2023-03-16T17:22:48.940Z,2.60
2023-03-16T17:27:53.592Z,8.82
2023-03-16T17:33:03.933Z,3.58
2023-03-16T17:38:22.974Z,6.60
2023-03-16T17:43:25.382Z,4.63
2023-03-16T17:48:27.619Z,1.98
2023-03-16T17:53:29.928Z,1.90
2023-03-16T17:58:32.539Z,2.00
2023-03-16T18:03:34.987Z,4.80
2023-03-16T18:08:37.252Z,1.60
2023-03-16T18:13:41.158Z,9.05
2023-03-16T18:18:43.663Z,11.32
2023-03-16T18:23:46.691Z,3.55
2023-03-16T18:28:48.932Z,1.40
2023-03-16T18:33:55.079Z,1.10
2023-03-16T18:39:01.746Z,1.10
2023-03-16T18:44:12.835Z,1.50
2023-03-16T18:49:20.822Z,1.20
2023-03-16T18:54:30.726Z,1.60
2023-03-16T18:59:33.028Z,1.58
2023-03-16T19:04:35.598Z,1.40
2023-03-16T19:09:38.012Z,1.00
2023-03-16T19:14:40.222Z,1.27
2023-03-16T19:19:42.992Z,1.73
2023-03-16T19:24:51.840Z,2.60
2023-03-16T19:29:54.789Z,2.90
2023-03-16T19:34:57.201Z,2.63
2023-03-16T19:40:00.418Z,3.50
2023-03-16T19:45:04.279Z,2.80
2023-03-16T19:50:17.356Z,2.60
2023-03-16T19:55:26.522Z,3.00
2023-03-16T20:00:31.256Z,2.30
2023-03-16T20:05:33.848Z,3.67
2023-03-16T20:10:36.494Z,4.75
2023-03-16T20:15:38.706Z,3.03
2023-03-16T20:20:42.463Z,5.55
2023-03-16T20:25:46.693Z,3.40
2023-03-16T20:30:49.825Z,2.65
2023-03-16T20:35:56.281Z,1.70
2023-03-16T20:40:58.688Z,2.30
2023-03-16T20:46:03.973Z,3.85
2023-03-16T20:51:08.436Z,3.78
2023-03-16T20:56:26.714Z,4.43
2023-03-16T21:01:28.948Z,4.55
2023-03-16T21:06:33.794Z,2.22
2023-03-16T21:11:37.993Z,4.78
2023-03-16T21:16:40.561Z,2.10
2023-03-16T21:21:43.606Z,2.85
2023-03-16T21:26:47.616Z,1.65
2023-03-16T21:31:50.134Z,1.60
2023-03-16T21:36:52.500Z,1.90
2023-03-16T21:41:54.747Z,2.80
2023-03-16T21:46:57.177Z,2.55
2023-03-16T21:52:01.234Z,1.52
2023-03-16T21:57:14.068Z,2.65
2023-03-16T22:02:27.666Z,7.57
2023-03-16T22:07:29.919Z,2.33
2023-03-16T22:12:32.117Z,7.45
2023-03-16T22:17:34.944Z,8.57
2023-03-16T22:22:37.153Z,11.48
2023-03-16T22:27:39.344Z,4.00
2023-03-16T22:32:41.872Z,6.03
2023-03-16T22:37:44.214Z,6.10
2023-03-16T22:42:46.495Z,6.10
2023-03-16T22:47:48.958Z,3.75
2023-03-16T22:52:55.770Z,6.03
2023-03-16T22:58:06.613Z,3.10
2023-03-16T23:03:21.092Z,3.20
2023-03-16T23:08:24.441Z,1.88
2023-03-16T23:13:27.417Z,2.25
2023-03-16T23:18:29.670Z,2.70
2023-03-16T23:23:32.417Z,2.38
2023-03-16T23:28:34.650Z,2.75
2023-03-16T23:33:37.025Z,2.20
2023-03-16T23:38:39.282Z,2.80
2023-03-16T23:43:43.926Z,2.40
2023-03-16T23:48:47.998Z,2.88
2023-03-16T23:53:50.820Z,1.65
2023-03-16T23:58:54.057Z,1.80
